Decoded Metar for NZWN (WELLINGTON in NEW ZEALAND) (IATA:WLG) | Meteo·Mobile Aviation Weather
aviador You're here:

NZWN Decoded Metar

WELLINGTON in NEW ZEALAND
Report Time2019-10-21 07:30:00
UTC Time2019-10-21 08:05:05
Flight Rules vfr VFR
Wind320° at 09 kt
W.Decomp.*RWY 34: 6.8 kt HW 5.9 kt LCW
Visibility9999 m
Phenomena:N/A
Clouds:Overcast 055 Hf
Expected CloudBase > 2,400 ft AGL from Temp-Dew spread
Ceiling5,500 ft
Temp14°C (ISA -1)
Dew Point08°C (67% RH)
AAT10.3°C
QNH1001 hPa
Density Alt463 ft
Elevation23 ft
Report Wrong Elevation
Raw Report
NZWN 210730Z AUTO 32009KT 290V360 9999 OVC055/// 14/08 Q1001
NOSIG=

Extra information for NZWN:More info

Metar Taf Metar & Taf Last 4 Metars F.Rules Stats Wind Profile Meteogram Temp Stats Airport Information Weather charts Add Link Nearby VenuesMetar ALERT Operation Metar Decoded Social comments